Time;durP1;ratioP1;P1;durP2;ratioP2;P2;SDS_P1;SDS_P2;PMS_P1;PMS_P2;Temp;Humidity;BMP_temperature;BMP_pressure;BME280_temperature;BME280_humidity;BME280_pressure;Samples;Min_cycle;Max_cycle;Signal;HPM_P1;HPM_P2
2021/11/24 00:00:09;;;;;;;2.50;1.83;;;2.40;99.90;;;;;;5068238;28;20420;-77
2021/11/24 00:02:35;;;;;;;2.70;1.67;;;2.40;99.90;;;;;;5069543;28;20419;-77
2021/11/24 00:05:01;;;;;;;2.35;1.95;;;2.40;99.90;;;;;;5069617;28;20072;-76
2021/11/24 00:07:27;;;;;;;1.90;1.75;;;2.40;99.90;;;;;;5069046;28;20422;-77
2021/11/24 00:09:53;;;;;;;1.92;1.48;;;2.40;99.90;;;;;;5060903;28;20036;-77
2021/11/24 00:12:19;;;;;;;2.45;1.60;;;2.40;99.90;;;;;;5046949;28;20043;-77
2021/11/24 00:14:45;;;;;;;2.72;1.75;;;2.40;99.90;;;;;;5069194;28;20056;-76
2021/11/24 00:17:10;;;;;;;2.38;1.80;;;2.40;99.90;;;;;;5067385;28;20109;-77
2021/11/24 00:19:36;;;;;;;2.45;1.92;;;2.40;99.90;;;;;;5053449;28;20088;-77
2021/11/24 00:22:02;;;;;;;2.45;1.90;;;2.40;99.90;;;;;;5063334;28;20025;-77
2021/11/24 00:24:28;;;;;;;2.17;1.95;;;2.40;99.90;;;;;;5070379;28;20146;-77
2021/11/24 00:26:53;;;;;;;2.80;2.03;;;2.40;99.90;;;;;;5069541;28;20048;-77
2021/11/24 00:29:19;;;;;;;1.80;1.63;;;2.40;99.90;;;;;;5067894;28;20471;-76
2021/11/24 00:31:45;;;;;;;2.53;1.77;;;2.40;99.90;;;;;;5066056;28;20024;-77
2021/11/24 00:34:11;;;;;;;2.83;2.10;;;2.40;99.90;;;;;;5069007;28;20170;-77
2021/11/24 00:36:36;;;;;;;2.75;2.22;;;2.40;99.90;;;;;;5069870;28;20028;-77
2021/11/24 00:39:03;;;;;;;2.65;2.15;;;2.40;99.90;;;;;;5067006;28;20036;-77
2021/11/24 00:41:28;;;;;;;3.63;2.13;;;2.40;99.90;;;;;;5070027;28;20031;-77
2021/11/24 00:43:54;;;;;;;2.08;1.85;;;2.40;99.90;;;;;;5068809;28;20028;-76
2021/11/24 00:46:20;;;;;;;2.95;2.30;;;2.40;99.90;;;;;;5070106;28;20028;-77
2021/11/24 00:48:46;;;;;;;2.17;1.65;;;2.40;99.90;;;;;;5069099;28;20021;-77
2021/11/24 00:51:11;;;;;;;2.88;1.80;;;2.40;99.90;;;;;;5070010;28;20028;-77
2021/11/24 00:53:37;;;;;;;3.70;2.28;;;2.40;99.90;;;;;;5068479;28;20028;-77
2021/11/24 00:56:03;;;;;;;2.50;2.08;;;2.40;99.90;;;;;;5068578;28;20028;-75
2021/11/24 00:58:29;;;;;;;5.47;2.13;;;2.40;99.90;;;;;;5054088;28;20040;-75
2021/11/24 01:00:55;;;;;;;4.53;2.75;;;2.40;99.90;;;;;;5070082;28;20044;-76
2021/11/24 01:03:20;;;;;;;3.20;2.30;;;2.40;99.90;;;;;;5064181;28;20383;-76
2021/11/24 01:05:46;;;;;;;2.20;2.00;;;2.40;99.90;;;;;;5050408;28;20060;-76
2021/11/24 01:08:16;;;;;;;2.50;2.10;;;2.40;99.90;;;;;;5070066;28;20033;-76
2021/11/24 01:10:44;;;;;;;2.88;2.20;;;2.40;99.90;;;;;;5062048;28;20086;-76
2021/11/24 01:13:13;;;;;;;3.67;2.20;;;2.40;99.90;;;;;;5067341;28;20052;-75
2021/11/24 01:15:39;;;;;;;3.40;2.38;;;2.40;99.90;;;;;;5068597;28;20055;-76
2021/11/24 01:18:05;;;;;;;2.80;2.33;;;2.40;99.90;;;;;;5069616;28;20175;-76
2021/11/24 01:20:31;;;;;;;4.57;2.53;;;2.40;99.90;;;;;;5064494;28;20527;-75
2021/11/24 01:22:58;;;;;;;3.20;2.20;;;2.40;99.90;;;;;;5052148;28;20074;-76
2021/11/24 01:25:24;;;;;;;3.20;2.10;;;2.40;99.90;;;;;;5062663;28;20017;-75
2021/11/24 01:27:50;;;;;;;2.63;2.30;;;2.40;99.90;;;;;;5063611;28;20025;-76
2021/11/24 01:30:16;;;;;;;3.92;2.40;;;2.40;99.90;;;;;;5076638;28;20123;-76
2021/11/24 01:32:42;;;;;;;3.22;2.78;;;2.40;99.90;;;;;;5068730;28;20032;-75
2021/11/24 01:35:09;;;;;;;3.95;2.97;;;2.40;99.90;;;;;;5070121;28;20025;-76
2021/11/24 01:37:35;;;;;;;3.15;2.50;;;2.40;99.90;;;;;;5063820;28;20123;-75
2021/11/24 01:40:03;;;;;;;3.55;2.80;;;2.40;99.90;;;;;;5069078;28;20116;-75
2021/11/24 01:42:29;;;;;;;2.72;2.42;;;2.40;99.90;;;;;;5073519;28;20024;-76
2021/11/24 01:44:55;;;;;;;4.38;2.83;;;2.40;99.90;;;;;;5073622;28;20025;-76
2021/11/24 01:47:21;;;;;;;3.53;2.90;;;2.40;99.90;;;;;;5072979;28;20031;-75
2021/11/24 01:49:48;;;;;;;5.53;3.30;;;2.40;99.90;;;;;;5073020;28;20024;-75
2021/11/24 01:52:14;;;;;;;4.78;2.92;;;2.50;99.90;;;;;;5073651;28;20124;-76
2021/11/24 01:54:40;;;;;;;3.55;2.72;;;2.50;99.90;;;;;;5073286;28;20036;-76
2021/11/24 01:57:06;;;;;;;4.55;2.95;;;2.50;99.90;;;;;;5072784;28;20025;-75
2021/11/24 01:59:32;;;;;;;3.33;2.53;;;2.50;99.90;;;;;;5066070;28;20375;-76
2021/11/24 02:01:58;;;;;;;3.42;2.25;;;2.50;99.90;;;;;;5102790;28;20098;-76
2021/11/24 02:04:24;;;;;;;3.60;2.60;;;2.50;99.90;;;;;;5072734;28;20400;-75
2021/11/24 02:06:50;;;;;;;3.90;2.80;;;2.50;99.90;;;;;;5072459;28;20036;-76
2021/11/24 02:09:17;;;;;;;3.33;3.03;;;2.50;99.90;;;;;;5105110;28;20371;-76
2021/11/24 02:11:44;;;;;;;5.63;2.83;;;2.40;99.90;;;;;;5072927;28;20115;-75
2021/11/24 02:14:12;;;;;;;5.03;2.92;;;2.50;99.90;;;;;;5072815;28;20536;-75
2021/11/24 02:16:50;;;;;;;6.70;3.28;;;2.50;99.90;;;;;;5072128;28;20028;-76
2021/11/24 02:19:16;;;;;;;4.40;2.95;;;2.50;99.90;;;;;;5070672;28;20029;-76
2021/11/24 02:21:50;;;;;;;6.20;2.95;;;2.50;99.90;;;;;;5072710;28;20028;-75
2021/11/24 02:24:17;;;;;;;3.88;3.47;;;2.50;99.90;;;;;;5072656;28;20099;-76
2021/11/24 02:26:43;;;;;;;4.43;2.85;;;2.50;99.90;;;;;;5072296;28;20024;-75
2021/11/24 02:29:09;;;;;;;4.03;2.70;;;2.50;99.90;;;;;;5070171;28;20040;-75
2021/11/24 02:31:35;;;;;;;4.50;2.80;;;2.50;99.90;;;;;;5065989;28;20033;-76
2021/11/24 02:34:02;;;;;;;4.97;3.10;;;2.50;99.90;;;;;;5072225;28;20422;-76
2021/11/24 02:36:30;;;;;;;4.63;2.97;;;2.50;99.90;;;;;;5072267;28;20147;-76
2021/11/24 02:38:55;;;;;;;3.97;2.95;;;2.50;99.90;;;;;;5066284;28;20414;-76
2021/11/24 02:41:21;;;;;;;4.05;2.72;;;2.50;99.90;;;;;;5072315;28;20017;-76
2021/11/24 02:43:47;;;;;;;3.53;2.40;;;2.50;99.90;;;;;;5072341;28;20071;-76
2021/11/24 02:46:13;;;;;;;2.88;2.58;;;2.50;99.90;;;;;;5067423;28;20448;-76
2021/11/24 02:48:39;;;;;;;3.20;2.58;;;2.50;99.90;;;;;;5069502;28;20033;-76
2021/11/24 02:51:05;;;;;;;4.82;3.05;;;2.50;99.90;;;;;;5064638;28;20032;-76
2021/11/24 02:53:34;;;;;;;4.43;2.50;;;2.50;99.90;;;;;;5071994;28;20025;-76
2021/11/24 02:56:00;;;;;;;5.15;2.88;;;2.50;99.90;;;;;;5071737;28;20521;-75
2021/11/24 02:58:27;;;;;;;3.38;2.45;;;2.50;99.90;;;;;;5065653;28;20016;-76
2021/11/24 03:00:57;;;;;;;3.75;2.70;;;2.50;99.90;;;;;;5067928;28;20033;-76
2021/11/24 03:03:23;;;;;;;4.22;2.72;;;2.50;99.90;;;;;;5071912;28;20451;-75
2021/11/24 03:05:49;;;;;;;4.63;3.17;;;2.50;99.90;;;;;;5067769;28;20045;-76
2021/11/24 03:08:15;;;;;;;4.82;3.50;;;2.50;99.90;;;;;;5071004;28;20021;-75
2021/11/24 03:10:41;;;;;;;4.28;2.90;;;2.50;99.90;;;;;;5069262;28;20032;-76
2021/11/24 03:13:07;;;;;;;3.97;2.97;;;2.50;99.90;;;;;;5071510;28;20719;-76
2021/11/24 03:15:33;;;;;;;4.40;3.20;;;2.50;99.90;;;;;;5071459;28;20104;-75
2021/11/24 03:18:00;;;;;;;3.05;2.70;;;2.50;99.90;;;;;;5070838;28;20123;-76
2021/11/24 03:20:28;;;;;;;3.90;2.88;;;2.50;99.90;;;;;;5071259;28;20059;-75
2021/11/24 03:22:55;;;;;;;3.35;2.92;;;2.50;99.90;;;;;;5070080;28;20055;-75
2021/11/24 03:25:21;;;;;;;5.25;3.17;;;2.50;99.90;;;;;;5071396;28;20415;-75
2021/11/24 03:27:47;;;;;;;3.40;2.67;;;2.60;99.90;;;;;;5071371;28;20071;-75
2021/11/24 03:30:20;;;;;;;3.83;2.80;;;2.50;99.90;;;;;;5065802;28;20131;-76
2021/11/24 03:32:47;;;;;;;5.65;2.58;;;2.50;99.90;;;;;;5067358;28;20028;-75
2021/11/24 03:35:14;;;;;;;3.78;2.75;;;2.50;99.90;;;;;;5069313;28;20032;-76
2021/11/24 03:37:40;;;;;;;3.38;2.78;;;2.50;99.90;;;;;;5070616;28;20020;-76
2021/11/24 03:40:08;;;;;;;3.92;2.92;;;2.50;99.90;;;;;;5070761;28;20029;-76
2021/11/24 03:42:35;;;;;;;2.53;2.33;;;2.50;99.90;;;;;;5070985;28;20100;-75
2021/11/24 03:45:03;;;;;;;3.15;2.80;;;2.50;99.90;;;;;;5070515;28;20032;-76
2021/11/24 03:47:29;;;;;;;3.78;2.88;;;2.50;99.90;;;;;;5066822;28;20159;-76
2021/11/24 03:49:54;;;;;;;3.83;2.97;;;2.50;99.90;;;;;;5065283;28;20115;-75
2021/11/24 03:52:20;;;;;;;3.08;2.35;;;2.50;99.90;;;;;;5064634;28;20041;-76
2021/11/24 03:54:46;;;;;;;3.00;2.45;;;2.50;99.90;;;;;;5068506;28;20030;-75
2021/11/24 03:57:12;;;;;;;3.30;2.30;;;2.50;99.90;;;;;;5067601;28;20024;-75
2021/11/24 03:59:38;;;;;;;2.97;2.60;;;2.50;99.90;;;;;;5061108;28;20032;-75
2021/11/24 04:02:03;;;;;;;2.85;2.33;;;2.40;99.90;;;;;;5068218;28;20020;-76
2021/11/24 04:04:29;;;;;;;2.85;1.92;;;2.40;99.90;;;;;;5070824;28;20065;-76
2021/11/24 04:06:55;;;;;;;3.42;2.22;;;2.50;99.90;;;;;;5070340;28;20037;-76
2021/11/24 04:09:21;;;;;;;3.60;2.55;;;2.50;99.90;;;;;;5069312;28;20032;-75
2021/11/24 04:11:47;;;;;;;4.57;2.17;;;2.40;99.90;;;;;;5070739;28;20020;-75
2021/11/24 04:14:12;;;;;;;2.65;2.22;;;2.40;99.90;;;;;;5070281;28;20101;-76
2021/11/24 04:16:38;;;;;;;3.92;2.35;;;2.40;99.90;;;;;;5070164;28;20047;-75
2021/11/24 04:19:04;;;;;;;5.53;2.58;;;2.40;99.90;;;;;;5066960;28;20029;-75
2021/11/24 04:21:30;;;;;;;3.80;2.35;;;2.40;99.90;;;;;;5070551;28;20033;-76
2021/11/24 04:23:57;;;;;;;3.05;2.38;;;2.40;99.90;;;;;;5070121;28;20017;-75
2021/11/24 04:26:23;;;;;;;3.30;2.35;;;2.30;99.90;;;;;;5068824;28;20437;-75
2021/11/24 04:28:49;;;;;;;4.50;2.38;;;2.30;99.90;;;;;;5068438;28;20029;-76
2021/11/24 04:31:15;;;;;;;3.05;2.28;;;2.30;99.90;;;;;;5062750;28;20088;-75
2021/11/24 04:33:41;;;;;;;3.88;2.72;;;2.30;99.90;;;;;;5063248;28;20127;-75
2021/11/24 04:36:07;;;;;;;4.30;2.70;;;2.30;99.90;;;;;;5069874;28;20029;-75
2021/11/24 04:38:34;;;;;;;2.75;2.22;;;2.30;99.90;;;;;;5068942;28;20048;-75
2021/11/24 04:41:00;;;;;;;4.07;2.97;;;2.30;99.90;;;;;;5069928;28;20039;-75
2021/11/24 04:43:30;;;;;;;3.58;2.60;;;2.30;99.90;;;;;;5070162;28;20021;-75
2021/11/24 04:45:56;;;;;;;3.97;2.70;;;2.30;99.90;;;;;;5069679;28;20028;-75
2021/11/24 04:48:22;;;;;;;2.72;2.15;;;2.30;99.90;;;;;;5069101;28;20043;-76
2021/11/24 04:50:48;;;;;;;3.92;2.25;;;2.30;99.90;;;;;;5065480;28;20024;-76
2021/11/24 04:53:14;;;;;;;3.42;2.33;;;2.30;99.90;;;;;;5069855;28;20719;-76
2021/11/24 04:55:40;;;;;;;2.85;2.50;;;2.30;99.90;;;;;;5069685;28;20095;-75
2021/11/24 04:58:06;;;;;;;2.42;1.92;;;2.30;99.90;;;;;;5069321;28;20035;-75
2021/11/24 05:00:32;;;;;;;2.28;1.88;;;2.30;99.90;;;;;;5069469;28;20024;-75
2021/11/24 05:02:58;;;;;;;2.97;2.55;;;2.30;99.90;;;;;;5069185;28;20024;-75
2021/11/24 05:05:29;;;;;;;2.97;2.22;;;2.30;99.90;;;;;;5069800;28;20021;-75
2021/11/24 05:07:57;;;;;;;4.45;2.70;;;2.30;99.90;;;;;;5067628;28;20132;-75
2021/11/24 05:10:23;;;;;;;2.97;2.22;;;2.40;99.90;;;;;;5067129;28;20056;-75
2021/11/24 05:12:49;;;;;;;3.28;2.50;;;2.30;99.90;;;;;;5069891;28;20115;-75
2021/11/24 05:15:29;;;;;;;3.03;2.28;;;2.30;99.90;;;;;;5073631;28;20486;-75
2021/11/24 05:17:59;;;;;;;3.00;2.38;;;2.30;99.90;;;;;;5073434;28;20024;-75
2021/11/24 05:20:28;;;;;;;3.50;2.47;;;2.30;99.90;;;;;;5066151;28;20021;-75
2021/11/24 05:22:56;;;;;;;2.25;2.05;;;2.30;99.90;;;;;;5072447;28;20048;-75
2021/11/24 05:25:22;;;;;;;2.75;2.20;;;2.30;99.90;;;;;;5073540;28;20082;-75
2021/11/24 05:27:47;;;;;;;3.30;2.25;;;2.30;99.90;;;;;;5070463;28;20445;-75
2021/11/24 05:30:13;;;;;;;2.83;2.25;;;2.20;99.90;;;;;;5062491;28;20443;-76
2021/11/24 05:32:39;;;;;;;3.55;2.67;;;2.30;99.90;;;;;;5072624;28;20047;-76
2021/11/24 05:35:05;;;;;;;4.18;2.42;;;2.30;99.90;;;;;;5072035;28;20032;-76
2021/11/24 05:37:32;;;;;;;3.90;3.10;;;2.20;99.90;;;;;;5069391;28;20112;-75
2021/11/24 05:39:58;;;;;;;2.92;2.60;;;2.20;99.90;;;;;;5064512;28;20032;-76
2021/11/24 05:42:25;;;;;;;3.85;2.80;;;2.20;99.90;;;;;;5073350;28;20040;-76
2021/11/24 05:45:01;;;;;;;3.05;2.58;;;2.20;99.90;;;;;;5073686;28;20028;-75
2021/11/24 05:50:11;;;;;;;4.85;2.80;;;2.20;99.90;;;;;;5069475;28;20041;-75
2021/11/24 05:52:36;;;;;;;3.63;2.30;;;2.20;99.90;;;;;;5073012;28;20036;-75
2021/11/24 05:55:03;;;;;;;3.83;2.60;;;2.20;99.90;;;;;;5072946;28;20104;-75
2021/11/24 05:57:29;;;;;;;3.20;2.70;;;2.20;99.90;;;;;;5071746;28;20024;-75
2021/11/24 05:59:55;;;;;;;3.00;2.63;;;2.20;99.90;;;;;;5070536;28;20028;-76
2021/11/24 06:02:20;;;;;;;6.60;3.67;;;2.20;99.90;;;;;;5072931;28;20024;-75
2021/11/24 06:04:46;;;;;;;9.55;3.35;;;2.20;99.90;;;;;;5070651;28;20025;-75
2021/11/24 06:07:12;;;;;;;3.75;3.30;;;2.20;99.90;;;;;;5072468;28;20154;-75
2021/11/24 06:09:38;;;;;;;4.40;3.42;;;2.20;99.90;;;;;;5068330;28;20656;-75
2021/11/24 06:12:04;;;;;;;3.67;2.97;;;2.20;99.90;;;;;;5072454;28;20040;-75
2021/11/24 06:14:29;;;;;;;4.80;3.50;;;2.20;99.90;;;;;;5072045;28;20033;-75
2021/11/24 06:16:55;;;;;;;4.53;3.55;;;2.20;99.90;;;;;;5072114;28;20387;-75
2021/11/24 06:19:21;;;;;;;3.95;2.50;;;2.20;99.90;;;;;;5064179;28;20162;-76
2021/11/24 06:21:47;;;;;;;5.03;2.83;;;2.20;99.90;;;;;;5072008;28;20439;-75
2021/11/24 06:24:13;;;;;;;5.40;3.10;;;2.20;99.90;;;;;;5069756;28;20033;-75
2021/11/24 06:26:39;;;;;;;6.07;3.15;;;2.20;99.90;;;;;;5071426;28;20368;-75
2021/11/24 06:29:05;;;;;;;4.05;3.10;;;2.20;99.90;;;;;;5071180;28;20051;-76
2021/11/24 06:31:31;;;;;;;4.03;2.85;;;2.10;99.90;;;;;;5072172;28;20025;-75
2021/11/24 06:33:56;;;;;;;4.20;3.25;;;2.10;99.90;;;;;;5071968;28;20062;-76
2021/11/24 06:36:24;;;;;;;4.00;3.22;;;2.10;99.90;;;;;;5072049;28;20103;-75
2021/11/24 06:38:51;;;;;;;4.57;3.05;;;2.10;99.90;;;;;;5066630;28;20036;-75
2021/11/24 06:41:17;;;;;;;5.32;3.47;;;2.20;99.90;;;;;;5072017;28;20028;-75
2021/11/24 06:43:43;;;;;;;4.60;3.40;;;2.20;99.90;;;;;;5071928;28;20510;-76
2021/11/24 06:46:09;;;;;;;3.97;2.83;;;2.10;99.90;;;;;;5071549;28;20025;-75
2021/11/24 06:48:35;;;;;;;4.15;3.33;;;2.20;99.90;;;;;;5071211;28;20044;-76
2021/11/24 06:51:01;;;;;;;4.07;2.97;;;2.20;99.90;;;;;;5071617;28;20040;-75
2021/11/24 06:53:27;;;;;;;4.95;3.03;;;2.10;99.90;;;;;;5072475;28;20135;-75
2021/11/24 06:55:53;;;;;;;3.78;3.00;;;2.20;99.90;;;;;;5071567;28;20032;-75
2021/11/24 06:58:19;;;;;;;3.83;3.10;;;2.20;99.90;;;;;;5069868;28;20029;-75
2021/11/24 07:00:45;;;;;;;5.15;3.38;;;2.10;99.90;;;;;;5070787;28;20482;-75
2021/11/24 07:03:11;;;;;;;4.32;3.30;;;2.20;99.90;;;;;;5071015;28;20026;-75
2021/11/24 07:05:37;;;;;;;4.63;3.35;;;2.20;99.90;;;;;;5069548;28;20025;-75
2021/11/24 07:08:03;;;;;;;4.85;3.85;;;2.20;99.90;;;;;;5069354;28;20033;-75
2021/11/24 07:10:30;;;;;;;6.80;4.20;;;2.20;99.90;;;;;;5070241;28;20592;-75
2021/11/24 07:12:55;;;;;;;11.25;8.32;;;2.40;99.90;;;;;;5069372;28;20039;-75
2021/11/24 07:15:22;;;;;;;8.52;6.00;;;2.50;99.90;;;;;;5071445;28;20445;-75
2021/11/24 07:17:47;;;;;;;7.13;4.65;;;2.50;99.90;;;;;;5070750;28;20020;-75
2021/11/24 07:20:13;;;;;;;6.00;4.53;;;2.40;99.90;;;;;;5069875;28;20036;-75
2021/11/24 07:22:39;;;;;;;4.15;3.00;;;2.40;99.90;;;;;;5071252;28;20068;-75
2021/11/24 07:25:06;;;;;;;5.47;2.88;;;2.40;99.90;;;;;;5064726;28;20028;-76
2021/11/24 07:27:31;;;;;;;5.10;2.97;;;2.50;99.90;;;;;;5065985;28;20035;-76
2021/11/24 07:29:57;;;;;;;5.60;2.97;;;2.50;99.90;;;;;;5066692;28;20036;-76
2021/11/24 07:32:23;;;;;;;3.25;2.67;;;2.50;99.90;;;;;;5068776;28;20116;-76
2021/11/24 07:34:49;;;;;;;3.92;2.80;;;2.50;99.90;;;;;;5069365;28;20036;-76
2021/11/24 07:37:14;;;;;;;3.55;2.58;;;2.50;99.90;;;;;;5066316;28;20410;-77
2021/11/24 07:39:40;;;;;;;2.92;2.58;;;2.60;99.90;;;;;;5068284;28;20456;-76
2021/11/24 07:42:06;;;;;;;4.57;2.65;;;2.60;99.90;;;;;;5067486;28;20025;-76
2021/11/24 07:44:32;;;;;;;3.47;2.70;;;2.60;99.90;;;;;;5066252;28;20024;-76
2021/11/24 07:46:58;;;;;;;3.28;2.70;;;2.70;99.90;;;;;;5065716;28;20031;-76
2021/11/24 07:49:23;;;;;;;3.05;2.58;;;2.70;99.90;;;;;;5046015;28;20025;-76
2021/11/24 07:51:49;;;;;;;2.75;2.47;;;2.80;99.90;;;;;;5068791;28;20482;-76
2021/11/24 07:54:15;;;;;;;3.30;2.90;;;2.80;99.90;;;;;;5066958;28;20067;-76
2021/11/24 07:56:41;;;;;;;3.15;2.63;;;2.80;99.90;;;;;;5067462;28;20059;-76
2021/11/24 07:59:07;;;;;;;4.15;2.10;;;2.80;99.90;;;;;;5068618;28;20035;-76
2021/11/24 08:01:32;;;;;;;2.60;2.40;;;2.90;99.90;;;;;;5097522;28;20029;-76
2021/11/24 08:03:58;;;;;;;3.33;2.28;;;2.90;99.90;;;;;;5068464;28;20522;-76
2021/11/24 08:06:24;;;;;;;2.80;2.45;;;3.00;99.90;;;;;;5069777;28;20074;-76
2021/11/24 08:08:49;;;;;;;2.90;2.50;;;3.00;99.90;;;;;;5063526;28;20077;-76
2021/11/24 08:11:15;;;;;;;3.28;1.95;;;3.00;99.90;;;;;;5067581;28;20628;-76
2021/11/24 08:13:41;;;;;;;3.40;2.80;;;3.10;99.90;;;;;;5068630;28;20032;-78
2021/11/24 08:16:07;;;;;;;2.63;2.22;;;3.10;99.90;;;;;;5061425;28;20032;-77
2021/11/24 08:18:32;;;;;;;2.95;2.50;;;3.20;99.90;;;;;;5062070;28;20047;-77
2021/11/24 08:20:58;;;;;;;3.22;2.67;;;3.20;99.90;;;;;;5081908;28;20032;-78
2021/11/24 08:23:24;;;;;;;3.00;2.55;;;3.20;99.90;;;;;;5066532;28;20087;-80
2021/11/24 08:25:50;;;;;;;3.78;2.72;;;3.20;99.90;;;;;;5048849;28;20494;-80
2021/11/24 08:28:16;;;;;;;3.80;2.40;;;3.30;99.90;;;;;;5048077;28;20032;-80
2021/11/24 08:30:42;;;;;;;3.10;2.40;;;3.30;99.90;;;;;;5064918;28;20067;-78
2021/11/24 08:33:08;;;;;;;3.03;2.30;;;3.40;99.90;;;;;;5065984;28;20036;-78
2021/11/24 08:35:34;;;;;;;3.75;2.63;;;3.40;99.90;;;;;;5058501;28;20036;-78
2021/11/24 08:37:59;;;;;;;3.67;3.05;;;3.50;99.90;;;;;;5062168;28;20028;-78
2021/11/24 08:40:25;;;;;;;3.00;2.45;;;3.50;99.90;;;;;;5054857;28;20052;-78
2021/11/24 08:42:51;;;;;;;5.03;3.53;;;3.60;99.90;;;;;;5060846;28;20040;-78
2021/11/24 08:45:17;;;;;;;7.32;3.97;;;3.60;99.90;;;;;;5066093;28;20119;-78
2021/11/24 08:47:43;;;;;;;3.58;2.70;;;3.70;99.90;;;;;;5062406;28;20044;-78
2021/11/24 08:50:11;;;;;;;5.50;2.95;;;3.80;99.90;;;;;;5065488;28;20031;-78
2021/11/24 08:52:37;;;;;;;5.18;4.20;;;3.80;99.90;;;;;;5061894;28;20064;-78
2021/11/24 08:55:05;;;;;;;6.10;4.65;;;3.90;99.90;;;;;;5067107;28;20657;-78
2021/11/24 08:57:31;;;;;;;6.82;4.47;;;3.80;99.90;;;;;;5065151;28;20650;-78
2021/11/24 08:59:58;;;;;;;5.63;3.10;;;3.80;99.90;;;;;;5058624;28;20048;-78
2021/11/24 09:02:28;;;;;;;4.43;3.63;;;3.80;99.90;;;;;;5058824;28;20722;-78
2021/11/24 09:04:54;;;;;;;4.53;3.08;;;3.90;99.90;;;;;;5065585;28;20438;-78
2021/11/24 09:07:20;;;;;;;3.47;2.75;;;3.90;99.90;;;;;;5063482;28;20475;-78
2021/11/24 09:09:46;;;;;;;4.20;3.10;;;4.00;99.90;;;;;;5063959;28;20112;-79
2021/11/24 09:12:12;;;;;;;4.68;3.38;;;4.10;99.90;;;;;;5063244;28;20027;-78
2021/11/24 09:14:38;;;;;;;3.47;2.30;;;4.20;99.90;;;;;;5064411;28;20020;-79
2021/11/24 09:17:04;;;;;;;4.88;2.13;;;4.30;99.90;;;;;;5063197;28;20078;-79
2021/11/24 09:19:30;;;;;;;4.43;2.25;;;4.40;99.90;;;;;;5044323;28;20024;-79
2021/11/24 09:21:56;;;;;;;2.13;1.90;;;4.40;99.90;;;;;;5064958;28;20036;-78
2021/11/24 09:24:26;;;;;;;2.97;2.10;;;4.40;99.90;;;;;;5064278;28;20363;-78
2021/11/24 09:27:06;;;;;;;1.58;1.48;;;4.40;99.90;;;;;;5060228;28;20033;-78
2021/11/24 09:29:32;;;;;;;2.03;1.42;;;4.50;99.90;;;;;;5046429;28;20028;-78
2021/11/24 09:32:03;;;;;;;1.75;1.50;;;4.50;99.90;;;;;;5066212;28;20451;-78
2021/11/24 09:34:30;;;;;;;2.28;1.20;;;4.60;99.90;;;;;;5066284;28;20032;-78
2021/11/24 09:36:57;;;;;;;3.63;2.17;;;4.60;99.90;;;;;;5059806;28;20029;-78
2021/11/24 09:39:23;;;;;;;5.40;2.58;;;4.60;99.90;;;;;;5063226;28;20395;-79
2021/11/24 09:41:51;;;;;;;4.65;3.10;;;4.70;99.90;;;;;;5060933;28;20032;-80
2021/11/24 09:44:17;;;;;;;3.70;2.80;;;4.80;99.90;;;;;;5063953;28;20073;-79
2021/11/24 09:46:49;;;;;;;1.17;0.80;;;4.80;99.90;;;;;;5065663;28;20094;-75
2021/11/24 09:49:16;;;;;;;1.38;1.08;;;5.00;99.90;;;;;;5063990;28;20020;-76
2021/11/24 09:51:43;;;;;;;1.15;0.75;;;5.10;99.90;;;;;;5058493;28;20478;-76
2021/11/24 09:54:11;;;;;;;2.78;1.17;;;5.20;99.90;;;;;;5063005;28;20109;-76
2021/11/24 09:56:40;;;;;;;1.13;0.80;;;5.20;99.90;;;;;;5058140;28;20029;-77
2021/11/24 09:59:10;;;;;;;1.05;0.80;;;5.20;99.90;;;;;;5059731;28;20051;-77
2021/11/24 10:01:39;;;;;;;0.80;0.77;;;5.30;99.90;;;;;;5064742;28;20028;-77
2021/11/24 10:04:06;;;;;;;1.58;1.35;;;5.30;99.90;;;;;;5033833;28;20032;-77
2021/11/24 10:06:40;;;;;;;3.03;1.73;;;5.30;99.90;;;;;;5063257;28;20024;-77
2021/11/24 10:09:10;;;;;;;1.77;0.90;;;5.40;99.90;;;;;;5045756;28;20042;-77
2021/11/24 10:11:37;;;;;;;5.47;1.92;;;5.40;99.90;;;;;;5065416;28;20363;-77
2021/11/24 10:14:03;;;;;;;1.45;1.00;;;5.40;99.90;;;;;;5067904;28;20032;-77
2021/11/24 10:16:33;;;;;;;2.85;2.15;;;5.40;99.90;;;;;;5063871;28;20025;-78
2021/11/24 10:19:00;;;;;;;1.30;1.10;;;5.30;99.90;;;;;;5066715;28;20094;-78
2021/11/24 10:21:28;;;;;;;2.72;1.35;;;5.20;99.90;;;;;;5068797;28;20032;-78
2021/11/24 10:23:59;;;;;;;1.55;1.38;;;5.30;99.90;;;;;;5051042;28;20028;-78
2021/11/24 10:26:27;;;;;;;2.45;2.20;;;5.50;99.90;;;;;;5067987;28;20021;-77
2021/11/24 10:29:07;;;;;;;2.28;1.58;;;5.50;99.90;;;;;;5060888;28;20102;-76
2021/11/24 10:31:33;;;;;;;2.88;1.70;;;5.40;99.90;;;;;;5063448;28;20028;-79
2021/11/24 10:34:02;;;;;;;2.33;1.75;;;5.50;99.90;;;;;;5066019;28;20079;-80
2021/11/24 10:36:28;;;;;;;3.67;2.30;;;5.50;99.90;;;;;;5051477;28;20032;-80
2021/11/24 10:38:55;;;;;;;1.48;1.30;;;5.60;99.90;;;;;;5064910;28;20415;-79
2021/11/24 10:41:35;;;;;;;1.48;1.30;;;5.60;99.90;;;;;;5069333;28;20033;-79
2021/11/24 10:44:03;;;;;;;3.15;1.80;;;5.50;99.90;;;;;;5069129;28;20112;-77
2021/11/24 10:46:31;;;;;;;1.65;1.52;;;5.60;99.90;;;;;;5050751;28;20052;-77
2021/11/24 10:49:05;;;;;;;2.00;1.83;;;5.50;99.90;;;;;;5063759;28;20028;-76
2021/11/24 10:51:34;;;;;;;2.53;1.75;;;5.50;99.90;;;;;;5031871;28;20124;-77
2021/11/24 10:54:10;;;;;;;2.58;1.85;;;5.50;99.90;;;;;;5050947;28;20037;-78
2021/11/24 10:57:11;;;;;;;2.47;2.00;;;5.40;99.90;;;;;;5062999;28;20021;-78
2021/11/24 10:59:39;;;;;;;2.53;2.10;;;5.40;99.90;;;;;;5066128;28;20044;-78
2021/11/24 11:02:17;;;;;;;2.22;1.92;;;5.40;99.90;;;;;;5066197;28;20033;-79
2021/11/24 11:04:53;;;;;;;2.78;2.05;;;5.40;99.90;;;;;;5059433;28;20257;-77
2021/11/24 11:07:19;;;;;;;1.83;1.55;;;5.30;99.90;;;;;;5062295;28;20466;-77
2021/11/24 11:09:44;;;;;;;6.95;4.85;;;5.30;99.90;;;;;;5048446;28;20032;-78
2021/11/24 11:12:10;;;;;;;2.92;2.17;;;5.30;99.90;;;;;;5062613;28;20025;-78
2021/11/24 11:14:36;;;;;;;5.05;3.47;;;5.30;99.90;;;;;;5066151;28;20025;-77
2021/11/24 11:17:02;;;;;;;3.13;2.72;;;5.30;99.90;;;;;;5065983;28;20028;-78
2021/11/24 11:19:44;;;;;;;2.53;1.98;;;5.20;99.90;;;;;;5067137;28;20028;-77
2021/11/24 11:22:14;;;;;;;3.30;2.40;;;5.30;99.90;;;;;;5066729;28;20075;-77
2021/11/24 11:24:40;;;;;;;5.82;4.47;;;5.30;99.90;;;;;;5065621;28;20518;-78
2021/11/24 11:27:06;;;;;;;2.53;1.95;;;5.40;99.90;;;;;;5049976;28;20059;-77
2021/11/24 11:29:32;;;;;;;2.55;2.08;;;5.30;99.90;;;;;;5057023;28;20083;-79
2021/11/24 11:31:58;;;;;;;3.30;2.30;;;5.30;99.90;;;;;;5049011;28;20025;-77
2021/11/24 11:34:24;;;;;;;2.78;2.17;;;5.30;99.90;;;;;;5066045;28;20031;-77
2021/11/24 11:36:50;;;;;;;3.38;2.28;;;5.30;99.90;;;;;;5063479;28;20032;-76
2021/11/24 11:39:16;;;;;;;4.45;2.38;;;5.20;99.90;;;;;;5064106;28;20024;-77
2021/11/24 11:41:43;;;;;;;4.07;2.63;;;5.00;99.90;;;;;;5066529;28;20027;-78
2021/11/24 11:44:13;;;;;;;4.45;3.30;;;5.00;99.90;;;;;;5064994;28;20119;-78
2021/11/24 11:46:50;;;;;;;5.00;3.47;;;5.00;99.90;;;;;;5060381;28;20445;-78
2021/11/24 11:49:21;;;;;;;3.53;2.55;;;5.00;99.90;;;;;;5046832;28;20029;-77
2021/11/24 11:51:49;;;;;;;4.53;3.47;;;5.00;99.90;;;;;;5062643;28;20021;-78
2021/11/24 11:54:26;;;;;;;5.85;3.83;;;5.00;99.90;;;;;;5079552;28;20105;-78
2021/11/24 11:56:53;;;;;;;6.20;4.20;;;5.10;99.90;;;;;;5062816;28;20055;-79
2021/11/24 11:59:19;;;;;;;3.15;2.40;;;5.00;99.90;;;;;;5059470;28;20024;-78
2021/11/24 12:01:45;;;;;;;4.30;3.28;;;5.10;99.90;;;;;;5062138;28;20024;-78
2021/11/24 12:04:21;;;;;;;2.65;2.40;;;5.10;99.90;;;;;;5062533;28;20093;-78
2021/11/24 12:06:52;;;;;;;4.38;2.95;;;5.10;99.90;;;;;;5061376;28;20024;-77
2021/11/24 12:09:39;;;;;;;3.78;3.03;;;5.10;99.90;;;;;;5058297;28;20111;-78
2021/11/24 12:12:11;;;;;;;4.13;3.10;;;5.10;99.90;;;;;;5062260;28;20049;-79
2021/11/24 12:14:44;;;;;;;4.78;3.30;;;5.10;99.90;;;;;;5062444;28;20527;-78
2021/11/24 12:17:37;;;;;;;4.50;3.15;;;5.10;99.90;;;;;;5042707;28;20086;-79
2021/11/24 12:20:12;;;;;;;4.40;3.15;;;5.10;99.90;;;;;;5062750;28;20032;-79
2021/11/24 12:22:54;;;;;;;4.75;2.92;;;5.10;99.90;;;;;;5066925;28;20096;-79
2021/11/24 12:25:21;;;;;;;4.90;3.25;;;5.10;99.90;;;;;;5052443;28;20040;-78
2021/11/24 12:27:53;;;;;;;4.63;2.78;;;5.10;99.90;;;;;;5044762;28;20025;-78
2021/11/24 12:33:15;;;;;;;5.60;3.47;;;5.10;99.90;;;;;;5063504;28;20044;-78
2021/11/24 12:35:41;;;;;;;3.95;3.00;;;5.10;99.90;;;;;;5067361;28;20057;-78
2021/11/24 12:38:08;;;;;;;7.78;5.45;;;5.10;99.90;;;;;;5065525;28;20560;-78
2021/11/24 12:40:36;;;;;;;6.60;3.97;;;5.10;99.90;;;;;;5064741;28;20406;-79
2021/11/24 12:43:06;;;;;;;4.45;3.28;;;5.10;99.90;;;;;;5059554;28;20115;-78
2021/11/24 12:45:34;;;;;;;5.10;2.95;;;5.10;99.90;;;;;;5055870;28;20032;-79
2021/11/24 12:48:05;;;;;;;5.95;4.00;;;5.20;99.90;;;;;;5046116;28;20024;-79
2021/11/24 12:50:32;;;;;;;5.72;3.50;;;5.30;99.90;;;;;;5070070;28;20052;-78
2021/11/24 12:53:04;;;;;;;8.45;4.22;;;5.30;99.90;;;;;;5083551;28;20032;-76
2021/11/24 12:55:32;;;;;;;4.68;3.10;;;5.40;99.90;;;;;;5086784;28;20032;-79
2021/11/24 12:57:58;;;;;;;4.80;3.25;;;5.40;99.90;;;;;;5069338;28;20483;-78
2021/11/24 13:00:30;;;;;;;4.65;3.30;;;5.40;99.90;;;;;;5067163;28;20073;-77
2021/11/24 13:02:56;;;;;;;5.07;3.13;;;5.40;99.90;;;;;;5049022;28;20036;-78